sensor_id;sensor_type;location;lat;lon;timestamp;P1;durP1;ratioP1;P2;durP2;ratioP2
43150;SDS011;28755;51.478;5.702;2022-08-21T00:01:14;14.45;;;7.18;;
43150;SDS011;28755;51.478;5.702;2022-08-21T00:03:43;13.20;;;7.37;;
43150;SDS011;28755;51.478;5.702;2022-08-21T00:06:09;13.85;;;7.10;;
43150;SDS011;28755;51.478;5.702;2022-08-21T00:08:35;11.93;;;7.20;;
43150;SDS011;28755;51.478;5.702;2022-08-21T00:11:01;18.65;;;7.35;;
43150;SDS011;28755;51.478;5.702;2022-08-21T00:13:28;14.73;;;7.00;;
43150;SDS011;28755;51.478;5.702;2022-08-21T00:15:53;11.15;;;6.57;;
43150;SDS011;28755;51.478;5.702;2022-08-21T00:18:19;13.65;;;7.43;;
43150;SDS011;28755;51.478;5.702;2022-08-21T00:20:45;14.82;;;7.25;;
43150;SDS011;28755;51.478;5.702;2022-08-21T00:23:12;14.88;;;7.00;;
43150;SDS011;28755;51.478;5.702;2022-08-21T00:25:38;13.90;;;7.05;;
43150;SDS011;28755;51.478;5.702;2022-08-21T00:28:04;15.75;;;7.35;;
43150;SDS011;28755;51.478;5.702;2022-08-21T00:30:31;13.77;;;7.40;;
43150;SDS011;28755;51.478;5.702;2022-08-21T00:32:58;13.82;;;7.50;;
43150;SDS011;28755;51.478;5.702;2022-08-21T00:35:27;14.73;;;7.47;;
43150;SDS011;28755;51.478;5.702;2022-08-21T00:40:23;14.40;;;8.32;;
43150;SDS011;28755;51.478;5.702;2022-08-21T00:43:05;20.48;;;8.93;;
43150;SDS011;28755;51.478;5.702;2022-08-21T00:45:32;15.32;;;7.40;;
43150;SDS011;28755;51.478;5.702;2022-08-21T00:47:59;17.25;;;8.38;;
43150;SDS011;28755;51.478;5.702;2022-08-21T00:50:26;14.60;;;8.68;;
43150;SDS011;28755;51.478;5.702;2022-08-21T00:52:56;17.55;;;8.20;;
43150;SDS011;28755;51.478;5.702;2022-08-21T00:55:22;14.38;;;7.10;;
43150;SDS011;28755;51.478;5.702;2022-08-21T00:57:52;19.27;;;7.80;;
43150;SDS011;28755;51.478;5.702;2022-08-21T01:00:22;14.23;;;7.82;;
43150;SDS011;28755;51.478;5.702;2022-08-21T01:02:53;16.77;;;7.97;;
43150;SDS011;28755;51.478;5.702;2022-08-21T01:05:20;13.32;;;7.57;;
43150;SDS011;28755;51.478;5.702;2022-08-21T01:07:45;12.88;;;8.20;;
43150;SDS011;28755;51.478;5.702;2022-08-21T01:10:11;12.57;;;7.82;;
43150;SDS011;28755;51.478;5.702;2022-08-21T01:12:38;14.43;;;7.70;;
43150;SDS011;28755;51.478;5.702;2022-08-21T01:15:05;13.52;;;7.95;;
43150;SDS011;28755;51.478;5.702;2022-08-21T01:17:32;15.70;;;8.13;;
43150;SDS011;28755;51.478;5.702;2022-08-21T01:19:59;14.35;;;7.78;;
43150;SDS011;28755;51.478;5.702;2022-08-21T01:22:25;15.38;;;8.35;;
43150;SDS011;28755;51.478;5.702;2022-08-21T01:24:51;13.93;;;7.55;;
43150;SDS011;28755;51.478;5.702;2022-08-21T01:27:17;14.73;;;8.05;;
43150;SDS011;28755;51.478;5.702;2022-08-21T01:32:33;12.32;;;8.00;;
43150;SDS011;28755;51.478;5.702;2022-08-21T01:35:00;17.38;;;8.68;;
43150;SDS011;28755;51.478;5.702;2022-08-21T01:37:26;16.33;;;9.00;;
43150;SDS011;28755;51.478;5.702;2022-08-21T01:39:51;14.23;;;8.38;;
43150;SDS011;28755;51.478;5.702;2022-08-21T01:42:17;13.32;;;8.60;;
43150;SDS011;28755;51.478;5.702;2022-08-21T01:44:43;15.25;;;8.20;;
43150;SDS011;28755;51.478;5.702;2022-08-21T01:47:09;12.30;;;8.07;;
43150;SDS011;28755;51.478;5.702;2022-08-21T01:49:37;12.23;;;8.45;;
43150;SDS011;28755;51.478;5.702;2022-08-21T01:52:04;13.50;;;8.05;;
43150;SDS011;28755;51.478;5.702;2022-08-21T01:54:31;13.73;;;8.55;;
43150;SDS011;28755;51.478;5.702;2022-08-21T01:56:57;16.33;;;8.82;;
43150;SDS011;28755;51.478;5.702;2022-08-21T01:59:24;16.58;;;9.20;;
43150;SDS011;28755;51.478;5.702;2022-08-21T02:01:50;17.40;;;9.70;;
43150;SDS011;28755;51.478;5.702;2022-08-21T02:04:16;18.33;;;9.70;;
43150;SDS011;28755;51.478;5.702;2022-08-21T02:06:42;16.42;;;9.60;;
43150;SDS011;28755;51.478;5.702;2022-08-21T02:09:08;13.25;;;9.43;;
43150;SDS011;28755;51.478;5.702;2022-08-21T02:11:36;17.67;;;9.82;;
43150;SDS011;28755;51.478;5.702;2022-08-21T02:14:05;16.25;;;9.05;;
43150;SDS011;28755;51.478;5.702;2022-08-21T02:16:32;14.80;;;9.18;;
43150;SDS011;28755;51.478;5.702;2022-08-21T02:18:58;14.52;;;9.05;;
43150;SDS011;28755;51.478;5.702;2022-08-21T02:21:24;11.82;;;9.10;;
43150;SDS011;28755;51.478;5.702;2022-08-21T02:23:50;15.25;;;9.15;;
43150;SDS011;28755;51.478;5.702;2022-08-21T02:26:15;12.00;;;8.40;;
43150;SDS011;28755;51.478;5.702;2022-08-21T02:28:41;13.43;;;8.35;;
43150;SDS011;28755;51.478;5.702;2022-08-21T02:31:07;13.30;;;8.32;;
43150;SDS011;28755;51.478;5.702;2022-08-21T02:33:33;12.50;;;7.85;;
43150;SDS011;28755;51.478;5.702;2022-08-21T02:35:59;15.60;;;8.45;;
43150;SDS011;28755;51.478;5.702;2022-08-21T02:38:27;12.32;;;8.45;;
43150;SDS011;28755;51.478;5.702;2022-08-21T02:40:55;13.82;;;8.75;;
43150;SDS011;28755;51.478;5.702;2022-08-21T02:43:22;17.50;;;8.93;;
43150;SDS011;28755;51.478;5.702;2022-08-21T02:45:49;14.40;;;9.43;;
43150;SDS011;28755;51.478;5.702;2022-08-21T02:48:17;15.63;;;9.43;;
43150;SDS011;28755;51.478;5.702;2022-08-21T02:50:47;15.48;;;9.38;;
43150;SDS011;28755;51.478;5.702;2022-08-21T02:53:16;13.43;;;8.73;;
43150;SDS011;28755;51.478;5.702;2022-08-21T02:55:43;13.00;;;8.70;;
43150;SDS011;28755;51.478;5.702;2022-08-21T02:58:10;14.52;;;8.80;;
43150;SDS011;28755;51.478;5.702;2022-08-21T03:00:36;12.60;;;7.95;;
43150;SDS011;28755;51.478;5.702;2022-08-21T03:03:02;11.60;;;8.88;;
43150;SDS011;28755;51.478;5.702;2022-08-21T03:05:30;11.35;;;8.13;;
43150;SDS011;28755;51.478;5.702;2022-08-21T03:07:57;13.70;;;8.52;;
43150;SDS011;28755;51.478;5.702;2022-08-21T03:10:24;12.43;;;8.95;;
43150;SDS011;28755;51.478;5.702;2022-08-21T03:12:50;12.23;;;8.38;;
43150;SDS011;28755;51.478;5.702;2022-08-21T03:15:18;12.50;;;9.73;;
43150;SDS011;28755;51.478;5.702;2022-08-21T03:17:46;15.70;;;10.40;;
43150;SDS011;28755;51.478;5.702;2022-08-21T03:20:13;14.68;;;10.63;;
43150;SDS011;28755;51.478;5.702;2022-08-21T03:22:41;14.77;;;10.10;;
43150;SDS011;28755;51.478;5.702;2022-08-21T03:25:06;17.42;;;10.65;;
43150;SDS011;28755;51.478;5.702;2022-08-21T03:27:33;16.40;;;10.77;;
43150;SDS011;28755;51.478;5.702;2022-08-21T03:29:59;16.02;;;10.38;;
43150;SDS011;28755;51.478;5.702;2022-08-21T03:32:26;14.30;;;10.40;;
43150;SDS011;28755;51.478;5.702;2022-08-21T03:34:51;20.38;;;10.68;;
43150;SDS011;28755;51.478;5.702;2022-08-21T03:37:17;16.15;;;11.00;;
43150;SDS011;28755;51.478;5.702;2022-08-21T03:39:43;20.98;;;10.63;;
43150;SDS011;28755;51.478;5.702;2022-08-21T03:42:09;21.35;;;11.32;;
43150;SDS011;28755;51.478;5.702;2022-08-21T03:44:36;18.50;;;9.82;;
43150;SDS011;28755;51.478;5.702;2022-08-21T03:47:04;12.05;;;9.63;;
43150;SDS011;28755;51.478;5.702;2022-08-21T03:49:30;15.75;;;10.10;;
43150;SDS011;28755;51.478;5.702;2022-08-21T03:51:56;14.20;;;9.80;;
43150;SDS011;28755;51.478;5.702;2022-08-21T03:54:21;12.63;;;10.25;;
43150;SDS011;28755;51.478;5.702;2022-08-21T03:56:47;15.25;;;10.05;;
43150;SDS011;28755;51.478;5.702;2022-08-21T03:59:12;21.55;;;10.75;;
43150;SDS011;28755;51.478;5.702;2022-08-21T04:01:38;18.58;;;10.48;;
43150;SDS011;28755;51.478;5.702;2022-08-21T04:04:04;16.35;;;10.00;;
43150;SDS011;28755;51.478;5.702;2022-08-21T04:06:30;16.95;;;9.98;;
43150;SDS011;28755;51.478;5.702;2022-08-21T04:08:56;18.63;;;10.20;;
43150;SDS011;28755;51.478;5.702;2022-08-21T04:11:21;15.57;;;9.68;;
43150;SDS011;28755;51.478;5.702;2022-08-21T04:13:47;16.52;;;10.75;;
43150;SDS011;28755;51.478;5.702;2022-08-21T04:16:13;16.23;;;9.98;;
43150;SDS011;28755;51.478;5.702;2022-08-21T04:18:39;16.80;;;10.10;;
43150;SDS011;28755;51.478;5.702;2022-08-21T04:21:05;13.80;;;9.73;;
43150;SDS011;28755;51.478;5.702;2022-08-21T04:23:35;15.73;;;9.52;;
43150;SDS011;28755;51.478;5.702;2022-08-21T04:26:00;15.80;;;9.95;;
43150;SDS011;28755;51.478;5.702;2022-08-21T04:28:26;15.60;;;9.68;;
43150;SDS011;28755;51.478;5.702;2022-08-21T04:30:52;17.95;;;9.02;;
43150;SDS011;28755;51.478;5.702;2022-08-21T04:33:19;18.52;;;10.40;;
43150;SDS011;28755;51.478;5.702;2022-08-21T04:35:45;18.42;;;9.82;;
43150;SDS011;28755;51.478;5.702;2022-08-21T04:38:12;12.15;;;9.60;;
43150;SDS011;28755;51.478;5.702;2022-08-21T04:40:38;17.15;;;9.57;;
43150;SDS011;28755;51.478;5.702;2022-08-21T04:43:05;17.30;;;10.05;;
43150;SDS011;28755;51.478;5.702;2022-08-21T04:45:35;17.25;;;9.88;;
43150;SDS011;28755;51.478;5.702;2022-08-21T04:48:03;14.80;;;9.93;;
43150;SDS011;28755;51.478;5.702;2022-08-21T04:50:37;17.27;;;9.88;;
43150;SDS011;28755;51.478;5.702;2022-08-21T04:53:29;14.50;;;9.18;;
43150;SDS011;28755;51.478;5.702;2022-08-21T04:55:56;18.48;;;9.68;;
43150;SDS011;28755;51.478;5.702;2022-08-21T04:58:25;17.77;;;9.45;;
43150;SDS011;28755;51.478;5.702;2022-08-21T05:00:53;17.45;;;9.52;;
43150;SDS011;28755;51.478;5.702;2022-08-21T05:03:20;13.88;;;9.73;;
43150;SDS011;28755;51.478;5.702;2022-08-21T05:05:47;19.77;;;9.88;;
43150;SDS011;28755;51.478;5.702;2022-08-21T05:08:14;18.80;;;10.10;;
43150;SDS011;28755;51.478;5.702;2022-08-21T05:10:42;15.10;;;9.40;;
43150;SDS011;28755;51.478;5.702;2022-08-21T05:13:09;18.35;;;9.80;;
43150;SDS011;28755;51.478;5.702;2022-08-21T05:15:37;11.57;;;8.65;;
43150;SDS011;28755;51.478;5.702;2022-08-21T05:18:04;13.73;;;8.43;;
43150;SDS011;28755;51.478;5.702;2022-08-21T05:20:31;14.43;;;8.45;;
43150;SDS011;28755;51.478;5.702;2022-08-21T05:22:59;15.40;;;8.35;;
43150;SDS011;28755;51.478;5.702;2022-08-21T05:25:25;14.23;;;7.68;;
43150;SDS011;28755;51.478;5.702;2022-08-21T05:27:52;18.05;;;8.40;;
43150;SDS011;28755;51.478;5.702;2022-08-21T05:30:18;14.60;;;7.68;;
43150;SDS011;28755;51.478;5.702;2022-08-21T05:32:45;13.68;;;7.65;;
43150;SDS011;28755;51.478;5.702;2022-08-21T05:35:12;14.63;;;8.23;;
43150;SDS011;28755;51.478;5.702;2022-08-21T05:37:38;17.35;;;7.78;;
43150;SDS011;28755;51.478;5.702;2022-08-21T05:40:04;13.75;;;7.93;;
43150;SDS011;28755;51.478;5.702;2022-08-21T05:42:31;18.52;;;7.22;;
43150;SDS011;28755;51.478;5.702;2022-08-21T05:44:57;20.15;;;8.00;;
43150;SDS011;28755;51.478;5.702;2022-08-21T05:47:22;16.10;;;7.38;;
43150;SDS011;28755;51.478;5.702;2022-08-21T05:49:48;15.63;;;7.68;;
43150;SDS011;28755;51.478;5.702;2022-08-21T05:52:18;17.73;;;6.90;;
43150;SDS011;28755;51.478;5.702;2022-08-21T05:54:47;12.63;;;6.80;;
43150;SDS011;28755;51.478;5.702;2022-08-21T05:57:13;12.60;;;6.38;;
43150;SDS011;28755;51.478;5.702;2022-08-21T05:59:38;12.35;;;6.47;;
43150;SDS011;28755;51.478;5.702;2022-08-21T06:02:04;14.00;;;6.15;;
43150;SDS011;28755;51.478;5.702;2022-08-21T06:04:34;14.65;;;6.30;;
43150;SDS011;28755;51.478;5.702;2022-08-21T06:07:01;15.02;;;6.00;;
43150;SDS011;28755;51.478;5.702;2022-08-21T06:09:26;12.85;;;5.90;;
43150;SDS011;28755;51.478;5.702;2022-08-21T06:11:52;14.05;;;5.50;;
43150;SDS011;28755;51.478;5.702;2022-08-21T06:14:18;15.70;;;5.22;;
43150;SDS011;28755;51.478;5.702;2022-08-21T06:16:43;12.35;;;5.35;;
43150;SDS011;28755;51.478;5.702;2022-08-21T06:19:09;13.35;;;5.03;;
43150;SDS011;28755;51.478;5.702;2022-08-21T06:21:34;13.77;;;5.00;;
43150;SDS011;28755;51.478;5.702;2022-08-21T06:24:00;12.15;;;5.55;;
43150;SDS011;28755;51.478;5.702;2022-08-21T06:26:25;13.43;;;5.00;;
43150;SDS011;28755;51.478;5.702;2022-08-21T06:28:52;14.20;;;5.03;;
43150;SDS011;28755;51.478;5.702;2022-08-21T06:31:20;12.43;;;4.97;;
43150;SDS011;28755;51.478;5.702;2022-08-21T06:33:47;12.30;;;5.38;;
43150;SDS011;28755;51.478;5.702;2022-08-21T06:36:13;12.40;;;5.68;;
43150;SDS011;28755;51.478;5.702;2022-08-21T06:38:39;12.15;;;5.35;;
43150;SDS011;28755;51.478;5.702;2022-08-21T06:41:05;13.90;;;4.93;;
43150;SDS011;28755;51.478;5.702;2022-08-21T06:43:38;12.70;;;4.88;;
43150;SDS011;28755;51.478;5.702;2022-08-21T06:46:03;14.15;;;4.90;;
43150;SDS011;28755;51.478;5.702;2022-08-21T06:48:29;12.32;;;5.22;;
43150;SDS011;28755;51.478;5.702;2022-08-21T06:50:58;11.13;;;4.47;;
43150;SDS011;28755;51.478;5.702;2022-08-21T06:53:24;11.75;;;4.47;;
43150;SDS011;28755;51.478;5.702;2022-08-21T06:55:50;16.83;;;4.38;;
43150;SDS011;28755;51.478;5.702;2022-08-21T06:58:16;13.88;;;4.18;;
43150;SDS011;28755;51.478;5.702;2022-08-21T07:00:43;14.60;;;4.50;;
43150;SDS011;28755;51.478;5.702;2022-08-21T07:03:22;12.30;;;4.18;;
43150;SDS011;28755;51.478;5.702;2022-08-21T07:05:54;10.85;;;3.92;;
43150;SDS011;28755;51.478;5.702;2022-08-21T07:08:21;12.40;;;4.13;;
43150;SDS011;28755;51.478;5.702;2022-08-21T07:10:47;11.70;;;4.45;;
43150;SDS011;28755;51.478;5.702;2022-08-21T07:13:14;14.63;;;4.72;;
43150;SDS011;28755;51.478;5.702;2022-08-21T07:15:40;12.82;;;4.13;;
43150;SDS011;28755;51.478;5.702;2022-08-21T07:18:06;12.32;;;3.92;;
43150;SDS011;28755;51.478;5.702;2022-08-21T07:20:32;10.43;;;4.05;;
43150;SDS011;28755;51.478;5.702;2022-08-21T07:22:59;15.13;;;4.03;;
43150;SDS011;28755;51.478;5.702;2022-08-21T07:25:27;9.70;;;3.70;;
43150;SDS011;28755;51.478;5.702;2022-08-21T07:27:53;11.98;;;3.75;;
43150;SDS011;28755;51.478;5.702;2022-08-21T07:30:19;15.30;;;4.70;;
43150;SDS011;28755;51.478;5.702;2022-08-21T07:32:44;13.43;;;4.32;;
43150;SDS011;28755;51.478;5.702;2022-08-21T07:35:10;14.95;;;4.18;;
43150;SDS011;28755;51.478;5.702;2022-08-21T07:37:36;16.00;;;4.93;;
43150;SDS011;28755;51.478;5.702;2022-08-21T07:40:02;14.98;;;3.95;;
43150;SDS011;28755;51.478;5.702;2022-08-21T07:42:29;14.30;;;4.18;;
43150;SDS011;28755;51.478;5.702;2022-08-21T07:44:55;12.32;;;3.85;;
43150;SDS011;28755;51.478;5.702;2022-08-21T07:47:21;15.88;;;4.20;;
43150;SDS011;28755;51.478;5.702;2022-08-21T07:49:46;16.13;;;4.13;;
43150;SDS011;28755;51.478;5.702;2022-08-21T07:52:12;18.90;;;4.47;;
43150;SDS011;28755;51.478;5.702;2022-08-21T07:54:37;14.13;;;4.00;;
43150;SDS011;28755;51.478;5.702;2022-08-21T07:57:03;11.45;;;3.65;;
43150;SDS011;28755;51.478;5.702;2022-08-21T07:59:29;13.88;;;3.33;;
43150;SDS011;28755;51.478;5.702;2022-08-21T08:01:54;19.40;;;3.72;;
43150;SDS011;28755;51.478;5.702;2022-08-21T08:04:21;16.30;;;4.22;;
43150;SDS011;28755;51.478;5.702;2022-08-21T08:06:47;15.63;;;3.42;;
43150;SDS011;28755;51.478;5.702;2022-08-21T08:09:13;14.60;;;3.55;;
43150;SDS011;28755;51.478;5.702;2022-08-21T08:11:38;16.95;;;3.78;;
43150;SDS011;28755;51.478;5.702;2022-08-21T08:14:08;13.98;;;4.22;;
43150;SDS011;28755;51.478;5.702;2022-08-21T08:16:34;16.50;;;3.53;;
43150;SDS011;28755;51.478;5.702;2022-08-21T08:18:59;12.73;;;3.47;;
43150;SDS011;28755;51.478;5.702;2022-08-21T08:21:25;15.55;;;3.30;;
43150;SDS011;28755;51.478;5.702;2022-08-21T08:23:51;12.77;;;2.83;;
43150;SDS011;28755;51.478;5.702;2022-08-21T08:26:17;8.45;;;2.20;;
43150;SDS011;28755;51.478;5.702;2022-08-21T08:28:42;13.88;;;3.38;;
43150;SDS011;28755;51.478;5.702;2022-08-21T08:31:08;12.80;;;2.50;;
43150;SDS011;28755;51.478;5.702;2022-08-21T08:33:34;11.80;;;2.38;;
43150;SDS011;28755;51.478;5.702;2022-08-21T08:36:00;15.40;;;2.60;;
43150;SDS011;28755;51.478;5.702;2022-08-21T08:38:26;16.55;;;2.85;;
43150;SDS011;28755;51.478;5.702;2022-08-21T08:41:12;15.02;;;2.92;;
43150;SDS011;28755;51.478;5.702;2022-08-21T08:43:41;12.93;;;3.28;;
43150;SDS011;28755;51.478;5.702;2022-08-21T08:46:15;12.77;;;2.22;;
43150;SDS011;28755;51.478;5.702;2022-08-21T08:48:49;12.35;;;2.17;;
43150;SDS011;28755;51.478;5.702;2022-08-21T08:51:37;13.25;;;2.70;;
43150;SDS011;28755;51.478;5.702;2022-08-21T08:54:07;11.75;;;2.63;;
43150;SDS011;28755;51.478;5.702;2022-08-21T08:56:37;12.40;;;2.78;;
43150;SDS011;28755;51.478;5.702;2022-08-21T08:59:22;10.25;;;2.40;;
43150;SDS011;28755;51.478;5.702;2022-08-21T09:02:00;12.35;;;2.17;;
43150;SDS011;28755;51.478;5.702;2022-08-21T09:04:26;9.95;;;2.17;;
43150;SDS011;28755;51.478;5.702;2022-08-21T09:09:57;11.50;;;2.42;;
43150;SDS011;28755;51.478;5.702;2022-08-21T09:12:45;9.63;;;1.95;;
43150;SDS011;28755;51.478;5.702;2022-08-21T09:15:32;12.98;;;2.20;;
43150;SDS011;28755;51.478;5.702;2022-08-21T09:21:06;9.60;;;1.83;;
43150;SDS011;28755;51.478;5.702;2022-08-21T09:26:23;9.88;;;2.15;;
43150;SDS011;28755;51.478;5.702;2022-08-21T09:28:53;8.57;;;1.98;;
43150;SDS011;28755;51.478;5.702;2022-08-21T09:31:39;9.43;;;1.90;;
43150;SDS011;28755;51.478;5.702;2022-08-21T09:34:23;12.30;;;1.92;;
43150;SDS011;28755;51.478;5.702;2022-08-21T09:36:50;7.65;;;1.70;;
43150;SDS011;28755;51.478;5.702;2022-08-21T09:39:27;7.07;;;1.85;;
43150;SDS011;28755;51.478;5.702;2022-08-21T09:41:58;9.10;;;2.25;;
43150;SDS011;28755;51.478;5.702;2022-08-21T09:44:27;8.90;;;2.08;;
43150;SDS011;28755;51.478;5.702;2022-08-21T09:46:55;9.40;;;2.10;;
43150;SDS011;28755;51.478;5.702;2022-08-21T09:49:31;6.20;;;1.65;;
43150;SDS011;28755;51.478;5.702;2022-08-21T09:51:59;9.40;;;2.00;;
43150;SDS011;28755;51.478;5.702;2022-08-21T09:54:30;5.60;;;1.70;;
43150;SDS011;28755;51.478;5.702;2022-08-21T09:57:00;6.97;;;1.73;;
43150;SDS011;28755;51.478;5.702;2022-08-21T09:59:55;9.40;;;1.95;;
43150;SDS011;28755;51.478;5.702;2022-08-21T10:05:23;8.82;;;2.00;;
43150;SDS011;28755;51.478;5.702;2022-08-21T10:07:49;7.47;;;2.15;;
43150;SDS011;28755;51.478;5.702;2022-08-21T10:10:22;7.43;;;1.67;;
43150;SDS011;28755;51.478;5.702;2022-08-21T10:12:54;8.48;;;2.08;;
43150;SDS011;28755;51.478;5.702;2022-08-21T10:18:24;8.00;;;1.80;;
43150;SDS011;28755;51.478;5.702;2022-08-21T10:21:07;8.63;;;1.90;;
43150;SDS011;28755;51.478;5.702;2022-08-21T10:32:43;8.30;;;1.75;;
43150;SDS011;28755;51.478;5.702;2022-08-21T10:35:25;8.90;;;1.90;;
43150;SDS011;28755;51.478;5.702;2022-08-21T10:40:44;6.32;;;1.50;;
43150;SDS011;28755;51.478;5.702;2022-08-21T10:43:39;5.40;;;1.30;;
43150;SDS011;28755;51.478;5.702;2022-08-21T10:46:36;7.85;;;1.88;;
43150;SDS011;28755;51.478;5.702;2022-08-21T10:49:22;7.97;;;1.55;;
43150;SDS011;28755;51.478;5.702;2022-08-21T10:54:52;6.97;;;1.75;;
43150;SDS011;28755;51.478;5.702;2022-08-21T10:57:32;6.15;;;1.73;;
43150;SDS011;28755;51.478;5.702;2022-08-21T11:00:16;5.38;;;1.38;;
43150;SDS011;28755;51.478;5.702;2022-08-21T11:03:16;8.40;;;1.65;;
43150;SDS011;28755;51.478;5.702;2022-08-21T11:06:06;6.07;;;1.42;;
43150;SDS011;28755;51.478;5.702;2022-08-21T11:08:43;5.80;;;1.35;;
43150;SDS011;28755;51.478;5.702;2022-08-21T11:11:20;7.68;;;1.55;;
43150;SDS011;28755;51.478;5.702;2022-08-21T11:19:43;5.85;;;1.40;;
43150;SDS011;28755;51.478;5.702;2022-08-21T11:22:06;5.97;;;1.50;;
43150;SDS011;28755;51.478;5.702;2022-08-21T11:27:36;5.75;;;1.48;;
43150;SDS011;28755;51.478;5.702;2022-08-21T11:30:11;4.80;;;1.40;;
43150;SDS011;28755;51.478;5.702;2022-08-21T11:32:43;6.68;;;1.60;;
43150;SDS011;28755;51.478;5.702;2022-08-21T11:49:12;6.80;;;1.75;;
43150;SDS011;28755;51.478;5.702;2022-08-21T11:51:47;7.78;;;2.13;;
43150;SDS011;28755;51.478;5.702;2022-08-21T11:57:12;9.52;;;1.92;;
43150;SDS011;28755;51.478;5.702;2022-08-21T12:02:19;8.98;;;2.25;;
43150;SDS011;28755;51.478;5.702;2022-08-21T12:04:51;6.75;;;2.10;;
43150;SDS011;28755;51.478;5.702;2022-08-21T12:07:34;6.18;;;1.65;;
43150;SDS011;28755;51.478;5.702;2022-08-21T12:10:05;7.30;;;1.90;;
43150;SDS011;28755;51.478;5.702;2022-08-21T12:12:37;8.15;;;2.17;;
43150;SDS011;28755;51.478;5.702;2022-08-21T12:15:11;6.68;;;1.98;;
43150;SDS011;28755;51.478;5.702;2022-08-21T12:17:38;6.60;;;1.75;;
43150;SDS011;28755;51.478;5.702;2022-08-21T12:22:49;6.78;;;2.03;;
43150;SDS011;28755;51.478;5.702;2022-08-21T12:25:36;9.45;;;1.80;;
43150;SDS011;28755;51.478;5.702;2022-08-21T12:28:08;7.55;;;1.85;;
43150;SDS011;28755;51.478;5.702;2022-08-21T12:30:38;10.32;;;1.60;;
43150;SDS011;28755;51.478;5.702;2022-08-21T12:33:17;8.40;;;1.88;;
43150;SDS011;28755;51.478;5.702;2022-08-21T12:35:51;8.50;;;2.03;;
43150;SDS011;28755;51.478;5.702;2022-08-21T12:38:26;4.53;;;1.73;;
43150;SDS011;28755;51.478;5.702;2022-08-21T12:40:59;7.97;;;2.10;;
43150;SDS011;28755;51.478;5.702;2022-08-21T12:43:30;8.70;;;1.88;;
43150;SDS011;28755;51.478;5.702;2022-08-21T12:46:05;8.73;;;1.83;;
43150;SDS011;28755;51.478;5.702;2022-08-21T12:48:31;6.88;;;1.60;;
43150;SDS011;28755;51.478;5.702;2022-08-21T12:51:11;8.95;;;2.10;;
43150;SDS011;28755;51.478;5.702;2022-08-21T12:54:21;8.18;;;1.85;;
43150;SDS011;28755;51.478;5.702;2022-08-21T12:56:31;7.43;;;1.95;;
43150;SDS011;28755;51.478;5.702;2022-08-21T12:59:03;5.82;;;1.90;;
43150;SDS011;28755;51.478;5.702;2022-08-21T13:01:46;11.65;;;2.45;;
43150;SDS011;28755;51.478;5.702;2022-08-21T13:04:17;7.10;;;1.75;;
43150;SDS011;28755;51.478;5.702;2022-08-21T13:06:50;8.98;;;2.40;;
43150;SDS011;28755;51.478;5.702;2022-08-21T13:09:20;6.63;;;1.60;;
43150;SDS011;28755;51.478;5.702;2022-08-21T13:11:50;10.55;;;1.60;;
43150;SDS011;28755;51.478;5.702;2022-08-21T13:14:25;11.25;;;2.30;;
43150;SDS011;28755;51.478;5.702;2022-08-21T13:16:56;6.68;;;1.60;;
43150;SDS011;28755;51.478;5.702;2022-08-21T13:19:23;7.78;;;2.03;;
43150;SDS011;28755;51.478;5.702;2022-08-21T13:21:50;7.53;;;1.85;;
43150;SDS011;28755;51.478;5.702;2022-08-21T13:24:22;9.57;;;2.10;;
43150;SDS011;28755;51.478;5.702;2022-08-21T13:26:49;9.45;;;1.83;;
43150;SDS011;28755;51.478;5.702;2022-08-21T13:29:16;6.25;;;1.90;;
43150;SDS011;28755;51.478;5.702;2022-08-21T13:31:49;6.60;;;2.10;;
43150;SDS011;28755;51.478;5.702;2022-08-21T13:34:22;6.35;;;2.00;;
43150;SDS011;28755;51.478;5.702;2022-08-21T13:36:51;9.80;;;2.20;;
43150;SDS011;28755;51.478;5.702;2022-08-21T13:39:20;9.27;;;2.25;;
43150;SDS011;28755;51.478;5.702;2022-08-21T13:41:48;9.35;;;1.80;;
43150;SDS011;28755;51.478;5.702;2022-08-21T13:44:18;8.65;;;1.95;;
43150;SDS011;28755;51.478;5.702;2022-08-21T13:46:47;7.97;;;2.08;;
43150;SDS011;28755;51.478;5.702;2022-08-21T13:49:16;6.75;;;1.75;;
43150;SDS011;28755;51.478;5.702;2022-08-21T13:51:47;8.35;;;2.28;;
43150;SDS011;28755;51.478;5.702;2022-08-21T13:54:15;8.27;;;1.60;;
43150;SDS011;28755;51.478;5.702;2022-08-21T13:56:45;10.38;;;2.03;;
43150;SDS011;28755;51.478;5.702;2022-08-21T13:59:12;9.00;;;2.13;;
43150;SDS011;28755;51.478;5.702;2022-08-21T14:01:52;8.70;;;1.98;;
43150;SDS011;28755;51.478;5.702;2022-08-21T14:04:26;11.70;;;2.28;;
43150;SDS011;28755;51.478;5.702;2022-08-21T14:07:14;9.18;;;1.83;;
43150;SDS011;28755;51.478;5.702;2022-08-21T14:09:43;7.97;;;2.13;;
43150;SDS011;28755;51.478;5.702;2022-08-21T14:12:19;6.90;;;1.83;;
43150;SDS011;28755;51.478;5.702;2022-08-21T14:14:53;6.72;;;1.83;;
43150;SDS011;28755;51.478;5.702;2022-08-21T14:17:28;7.05;;;1.80;;
43150;SDS011;28755;51.478;5.702;2022-08-21T14:19:56;11.30;;;2.45;;
43150;SDS011;28755;51.478;5.702;2022-08-21T14:25:03;10.23;;;2.17;;
43150;SDS011;28755;51.478;5.702;2022-08-21T14:27:30;11.77;;;1.95;;
43150;SDS011;28755;51.478;5.702;2022-08-21T14:29:59;9.60;;;2.40;;
43150;SDS011;28755;51.478;5.702;2022-08-21T14:32:29;12.93;;;2.55;;
43150;SDS011;28755;51.478;5.702;2022-08-21T14:35:05;10.57;;;2.17;;
43150;SDS011;28755;51.478;5.702;2022-08-21T14:37:32;7.53;;;2.47;;
43150;SDS011;28755;51.478;5.702;2022-08-21T14:39:58;6.93;;;2.20;;
43150;SDS011;28755;51.478;5.702;2022-08-21T14:42:23;12.45;;;2.60;;
43150;SDS011;28755;51.478;5.702;2022-08-21T14:44:49;11.00;;;2.47;;
43150;SDS011;28755;51.478;5.702;2022-08-21T14:47:15;7.28;;;1.95;;
43150;SDS011;28755;51.478;5.702;2022-08-21T14:49:41;10.63;;;2.75;;
43150;SDS011;28755;51.478;5.702;2022-08-21T14:52:07;11.73;;;2.63;;
43150;SDS011;28755;51.478;5.702;2022-08-21T14:54:34;14.55;;;2.85;;
43150;SDS011;28755;51.478;5.702;2022-08-21T14:57:02;12.68;;;2.47;;
43150;SDS011;28755;51.478;5.702;2022-08-21T14:59:31;9.68;;;2.40;;
43150;SDS011;28755;51.478;5.702;2022-08-21T15:01:57;7.65;;;2.03;;
43150;SDS011;28755;51.478;5.702;2022-08-21T15:04:23;10.23;;;2.15;;
43150;SDS011;28755;51.478;5.702;2022-08-21T15:06:50;10.65;;;2.50;;
43150;SDS011;28755;51.478;5.702;2022-08-21T15:09:15;10.23;;;2.08;;
43150;SDS011;28755;51.478;5.702;2022-08-21T15:11:41;10.27;;;2.28;;
43150;SDS011;28755;51.478;5.702;2022-08-21T15:14:08;10.23;;;3.15;;
43150;SDS011;28755;51.478;5.702;2022-08-21T15:16:40;9.98;;;2.65;;
43150;SDS011;28755;51.478;5.702;2022-08-21T15:19:06;8.68;;;2.47;;
43150;SDS011;28755;51.478;5.702;2022-08-21T15:21:32;7.65;;;2.08;;
43150;SDS011;28755;51.478;5.702;2022-08-21T15:23:58;5.50;;;2.10;;
43150;SDS011;28755;51.478;5.702;2022-08-21T15:26:23;7.45;;;2.45;;
43150;SDS011;28755;51.478;5.702;2022-08-21T15:28:49;10.50;;;2.70;;
43150;SDS011;28755;51.478;5.702;2022-08-21T15:31:15;13.45;;;2.67;;
43150;SDS011;28755;51.478;5.702;2022-08-21T15:33:41;13.05;;;2.70;;
43150;SDS011;28755;51.478;5.702;2022-08-21T15:36:06;9.30;;;2.40;;
43150;SDS011;28755;51.478;5.702;2022-08-21T15:38:32;12.10;;;2.72;;
43150;SDS011;28755;51.478;5.702;2022-08-21T15:40:58;10.90;;;2.40;;
43150;SDS011;28755;51.478;5.702;2022-08-21T15:43:25;10.48;;;2.65;;
43150;SDS011;28755;51.478;5.702;2022-08-21T15:45:52;14.68;;;2.83;;
43150;SDS011;28755;51.478;5.702;2022-08-21T15:48:19;11.32;;;2.53;;
43150;SDS011;28755;51.478;5.702;2022-08-21T15:50:45;10.88;;;2.60;;
43150;SDS011;28755;51.478;5.702;2022-08-21T15:53:11;11.63;;;2.85;;
43150;SDS011;28755;51.478;5.702;2022-08-21T15:55:37;12.82;;;2.70;;
43150;SDS011;28755;51.478;5.702;2022-08-21T15:58:03;9.25;;;2.70;;